sensor_id;sensor_type;location;lat;lon;timestamp;temperature;humidity
28530;DHT22;15737;49.760;6.632;2023-07-29T00:01:42;19.00;99.90
28530;DHT22;15737;49.760;6.632;2023-07-29T00:04:08;19.10;99.90
28530;DHT22;15737;49.760;6.632;2023-07-29T00:06:36;19.10;99.90
28530;DHT22;15737;49.760;6.632;2023-07-29T00:09:02;19.00;99.90
28530;DHT22;15737;49.760;6.632;2023-07-29T00:11:28;19.00;99.90
28530;DHT22;15737;49.760;6.632;2023-07-29T00:13:53;19.00;99.90
28530;DHT22;15737;49.760;6.632;2023-07-29T00:16:20;19.10;99.90
28530;DHT22;15737;49.760;6.632;2023-07-29T00:18:48;19.10;99.90
28530;DHT22;15737;49.760;6.632;2023-07-29T00:21:14;19.20;99.90
28530;DHT22;15737;49.760;6.632;2023-07-29T00:23:40;19.20;99.90
28530;DHT22;15737;49.760;6.632;2023-07-29T00:26:05;19.20;99.90
28530;DHT22;15737;49.760;6.632;2023-07-29T00:28:31;19.20;99.90
28530;DHT22;15737;49.760;6.632;2023-07-29T00:30:56;19.30;99.90
28530;DHT22;15737;49.760;6.632;2023-07-29T00:33:22;19.20;99.90
28530;DHT22;15737;49.760;6.632;2023-07-29T00:35:47;19.20;99.90
28530;DHT22;15737;49.760;6.632;2023-07-29T00:38:13;19.10;99.90
28530;DHT22;15737;49.760;6.632;2023-07-29T00:40:38;19.10;99.90
28530;DHT22;15737;49.760;6.632;2023-07-29T00:43:04;19.20;99.90
28530;DHT22;15737;49.760;6.632;2023-07-29T00:45:30;19.20;99.90
28530;DHT22;15737;49.760;6.632;2023-07-29T00:47:57;19.20;99.90
28530;DHT22;15737;49.760;6.632;2023-07-29T00:50:22;19.30;99.90
28530;DHT22;15737;49.760;6.632;2023-07-29T00:52:49;19.30;99.90
28530;DHT22;15737;49.760;6.632;2023-07-29T00:55:14;19.30;99.90
28530;DHT22;15737;49.760;6.632;2023-07-29T00:57:41;19.30;99.90
28530;DHT22;15737;49.760;6.632;2023-07-29T01:00:09;19.30;99.90
28530;DHT22;15737;49.760;6.632;2023-07-29T01:02:35;19.40;99.90
28530;DHT22;15737;49.760;6.632;2023-07-29T01:05:00;19.40;99.90
28530;DHT22;15737;49.760;6.632;2023-07-29T01:07:36;19.40;99.90
28530;DHT22;15737;49.760;6.632;2023-07-29T01:10:18;19.40;99.90
28530;DHT22;15737;49.760;6.632;2023-07-29T01:13:04;19.50;99.90
28530;DHT22;15737;49.760;6.632;2023-07-29T01:15:55;19.50;99.90
28530;DHT22;15737;49.760;6.632;2023-07-29T01:18:28;19.40;99.90
28530;DHT22;15737;49.760;6.632;2023-07-29T01:21:03;19.40;99.90
28530;DHT22;15737;49.760;6.632;2023-07-29T01:23:30;19.40;99.90
28530;DHT22;15737;49.760;6.632;2023-07-29T01:25:56;19.40;99.90
28530;DHT22;15737;49.760;6.632;2023-07-29T01:28:22;19.40;99.90
28530;DHT22;15737;49.760;6.632;2023-07-29T01:30:49;19.40;99.90
28530;DHT22;15737;49.760;6.632;2023-07-29T01:33:21;19.50;99.90
28530;DHT22;15737;49.760;6.632;2023-07-29T01:35:52;19.50;99.90
28530;DHT22;15737;49.760;6.632;2023-07-29T01:38:24;19.40;99.90
28530;DHT22;15737;49.760;6.632;2023-07-29T01:40:53;19.40;99.90
28530;DHT22;15737;49.760;6.632;2023-07-29T01:43:19;19.40;99.90
28530;DHT22;15737;49.760;6.632;2023-07-29T01:45:51;19.40;99.90
28530;DHT22;15737;49.760;6.632;2023-07-29T01:48:17;19.40;99.90
28530;DHT22;15737;49.760;6.632;2023-07-29T01:50:43;19.40;99.90
28530;DHT22;15737;49.760;6.632;2023-07-29T01:53:08;19.40;99.90
28530;DHT22;15737;49.760;6.632;2023-07-29T01:55:34;19.40;99.90
28530;DHT22;15737;49.760;6.632;2023-07-29T01:57:59;19.50;99.90
28530;DHT22;15737;49.760;6.632;2023-07-29T02:00:28;19.50;99.90
28530;DHT22;15737;49.760;6.632;2023-07-29T02:02:54;19.50;99.90
28530;DHT22;15737;49.760;6.632;2023-07-29T02:05:19;19.50;99.90
28530;DHT22;15737;49.760;6.632;2023-07-29T02:07:45;19.50;99.90
28530;DHT22;15737;49.760;6.632;2023-07-29T02:10:10;19.50;99.90
28530;DHT22;15737;49.760;6.632;2023-07-29T02:12:36;19.60;99.90
28530;DHT22;15737;49.760;6.632;2023-07-29T02:15:02;19.60;99.90
28530;DHT22;15737;49.760;6.632;2023-07-29T02:17:27;19.50;99.90
28530;DHT22;15737;49.760;6.632;2023-07-29T02:19:53;19.50;99.90
28530;DHT22;15737;49.760;6.632;2023-07-29T02:22:18;19.50;99.90
28530;DHT22;15737;49.760;6.632;2023-07-29T02:24:44;19.50;99.90
28530;DHT22;15737;49.760;6.632;2023-07-29T02:27:11;19.50;99.90
28530;DHT22;15737;49.760;6.632;2023-07-29T02:29:36;19.40;99.90
28530;DHT22;15737;49.760;6.632;2023-07-29T02:32:03;19.40;99.90
28530;DHT22;15737;49.760;6.632;2023-07-29T02:34:29;19.40;99.90
28530;DHT22;15737;49.760;6.632;2023-07-29T02:36:54;19.30;99.90
28530;DHT22;15737;49.760;6.632;2023-07-29T02:39:23;19.30;99.90
28530;DHT22;15737;49.760;6.632;2023-07-29T02:41:49;19.30;99.90
28530;DHT22;15737;49.760;6.632;2023-07-29T02:44:15;19.30;99.90
28530;DHT22;15737;49.760;6.632;2023-07-29T02:46:41;19.30;99.90
28530;DHT22;15737;49.760;6.632;2023-07-29T02:49:07;19.30;99.90
28530;DHT22;15737;49.760;6.632;2023-07-29T02:51:32;19.30;99.90
28530;DHT22;15737;49.760;6.632;2023-07-29T02:53:58;19.30;99.90
28530;DHT22;15737;49.760;6.632;2023-07-29T02:56:23;19.30;99.90
28530;DHT22;15737;49.760;6.632;2023-07-29T02:58:49;19.30;99.90
28530;DHT22;15737;49.760;6.632;2023-07-29T03:01:17;19.40;99.90
28530;DHT22;15737;49.760;6.632;2023-07-29T03:03:42;19.40;99.90
28530;DHT22;15737;49.760;6.632;2023-07-29T03:06:15;19.40;99.90
28530;DHT22;15737;49.760;6.632;2023-07-29T03:08:44;19.50;99.90
28530;DHT22;15737;49.760;6.632;2023-07-29T03:11:11;19.50;99.90
28530;DHT22;15737;49.760;6.632;2023-07-29T03:13:37;19.50;99.90
28530;DHT22;15737;49.760;6.632;2023-07-29T03:16:16;19.50;99.90
28530;DHT22;15737;49.760;6.632;2023-07-29T03:18:43;19.50;99.90
28530;DHT22;15737;49.760;6.632;2023-07-29T03:21:09;19.50;99.90
28530;DHT22;15737;49.760;6.632;2023-07-29T03:23:49;19.50;99.90
28530;DHT22;15737;49.760;6.632;2023-07-29T03:26:14;19.50;99.90
28530;DHT22;15737;49.760;6.632;2023-07-29T03:28:41;19.50;99.90
28530;DHT22;15737;49.760;6.632;2023-07-29T03:31:07;19.50;99.90
28530;DHT22;15737;49.760;6.632;2023-07-29T03:33:34;19.50;99.90
28530;DHT22;15737;49.760;6.632;2023-07-29T03:38:42;19.40;99.90
28530;DHT22;15737;49.760;6.632;2023-07-29T03:41:10;19.30;99.90
28530;DHT22;15737;49.760;6.632;2023-07-29T03:43:35;19.30;99.90
28530;DHT22;15737;49.760;6.632;2023-07-29T03:46:01;19.20;99.90
28530;DHT22;15737;49.760;6.632;2023-07-29T03:48:28;19.10;99.90
28530;DHT22;15737;49.760;6.632;2023-07-29T03:56:05;18.60;99.90
28530;DHT22;15737;49.760;6.632;2023-07-29T03:58:31;18.50;99.90
28530;DHT22;15737;49.760;6.632;2023-07-29T04:00:56;18.50;99.90
28530;DHT22;15737;49.760;6.632;2023-07-29T04:03:22;18.50;99.90
28530;DHT22;15737;49.760;6.632;2023-07-29T04:05:47;18.40;99.90
28530;DHT22;15737;49.760;6.632;2023-07-29T04:08:13;18.40;99.90
28530;DHT22;15737;49.760;6.632;2023-07-29T04:10:38;18.40;99.90
28530;DHT22;15737;49.760;6.632;2023-07-29T04:13:04;18.40;99.90
28530;DHT22;15737;49.760;6.632;2023-07-29T04:15:30;18.40;99.90
28530;DHT22;15737;49.760;6.632;2023-07-29T04:18:02;18.30;99.90
28530;DHT22;15737;49.760;6.632;2023-07-29T04:20:27;18.30;99.90
28530;DHT22;15737;49.760;6.632;2023-07-29T04:22:53;18.30;99.90
28530;DHT22;15737;49.760;6.632;2023-07-29T04:25:18;18.20;99.90
28530;DHT22;15737;49.760;6.632;2023-07-29T04:27:44;18.10;99.90
28530;DHT22;15737;49.760;6.632;2023-07-29T04:30:10;18.10;99.90
28530;DHT22;15737;49.760;6.632;2023-07-29T04:32:36;18.00;99.90
28530;DHT22;15737;49.760;6.632;2023-07-29T04:35:01;17.90;99.90
28530;DHT22;15737;49.760;6.632;2023-07-29T04:37:27;17.90;99.90
28530;DHT22;15737;49.760;6.632;2023-07-29T04:39:52;17.80;99.90
28530;DHT22;15737;49.760;6.632;2023-07-29T04:42:18;17.90;99.90
28530;DHT22;15737;49.760;6.632;2023-07-29T04:44:46;17.90;99.90
28530;DHT22;15737;49.760;6.632;2023-07-29T04:47:12;17.90;99.90
28530;DHT22;15737;49.760;6.632;2023-07-29T04:49:37;18.00;99.90
28530;DHT22;15737;49.760;6.632;2023-07-29T04:52:03;18.00;99.90
28530;DHT22;15737;49.760;6.632;2023-07-29T04:54:29;18.00;99.90
28530;DHT22;15737;49.760;6.632;2023-07-29T04:56:54;18.00;99.90
28530;DHT22;15737;49.760;6.632;2023-07-29T04:59:20;17.90;99.90
28530;DHT22;15737;49.760;6.632;2023-07-29T05:01:45;17.90;99.90
28530;DHT22;15737;49.760;6.632;2023-07-29T05:04:11;17.90;99.90
28530;DHT22;15737;49.760;6.632;2023-07-29T05:06:37;17.90;99.90
28530;DHT22;15737;49.760;6.632;2023-07-29T05:09:18;17.90;99.90
28530;DHT22;15737;49.760;6.632;2023-07-29T05:12:05;17.80;99.90
28530;DHT22;15737;49.760;6.632;2023-07-29T05:14:31;17.70;99.90
28530;DHT22;15737;49.760;6.632;2023-07-29T05:16:56;17.70;99.90
28530;DHT22;15737;49.760;6.632;2023-07-29T05:19:22;17.60;99.90
28530;DHT22;15737;49.760;6.632;2023-07-29T05:21:47;17.50;99.90
28530;DHT22;15737;49.760;6.632;2023-07-29T05:24:13;17.50;99.90
28530;DHT22;15737;49.760;6.632;2023-07-29T05:26:38;17.50;99.90
28530;DHT22;15737;49.760;6.632;2023-07-29T05:29:04;17.50;99.90
28530;DHT22;15737;49.760;6.632;2023-07-29T05:31:29;17.60;99.90
28530;DHT22;15737;49.760;6.632;2023-07-29T05:33:55;17.60;99.90
28530;DHT22;15737;49.760;6.632;2023-07-29T05:36:20;17.60;99.90
28530;DHT22;15737;49.760;6.632;2023-07-29T05:38:46;17.70;99.90
28530;DHT22;15737;49.760;6.632;2023-07-29T05:41:11;17.70;99.90
28530;DHT22;15737;49.760;6.632;2023-07-29T05:43:37;17.70;99.90
28530;DHT22;15737;49.760;6.632;2023-07-29T05:46:03;17.70;99.90
28530;DHT22;15737;49.760;6.632;2023-07-29T05:48:28;17.70;99.90
28530;DHT22;15737;49.760;6.632;2023-07-29T05:50:54;17.70;99.90
28530;DHT22;15737;49.760;6.632;2023-07-29T05:53:19;17.70;99.90
28530;DHT22;15737;49.760;6.632;2023-07-29T05:55:45;17.80;99.90
28530;DHT22;15737;49.760;6.632;2023-07-29T05:58:10;17.80;99.90
28530;DHT22;15737;49.760;6.632;2023-07-29T06:00:36;17.80;99.90
28530;DHT22;15737;49.760;6.632;2023-07-29T06:03:01;17.90;99.90
28530;DHT22;15737;49.760;6.632;2023-07-29T06:05:27;18.10;99.90
28530;DHT22;15737;49.760;6.632;2023-07-29T06:08:07;18.50;99.90
28530;DHT22;15737;49.760;6.632;2023-07-29T06:10:34;18.70;99.90
28530;DHT22;15737;49.760;6.632;2023-07-29T06:12:59;18.60;99.90
28530;DHT22;15737;49.760;6.632;2023-07-29T06:15:25;18.40;99.90
28530;DHT22;15737;49.760;6.632;2023-07-29T06:17:50;18.30;99.90
28530;DHT22;15737;49.760;6.632;2023-07-29T06:20:16;18.20;99.90
28530;DHT22;15737;49.760;6.632;2023-07-29T06:22:41;18.10;99.90
28530;DHT22;15737;49.760;6.632;2023-07-29T06:25:08;18.20;99.90
28530;DHT22;15737;49.760;6.632;2023-07-29T06:27:34;18.30;99.90
28530;DHT22;15737;49.760;6.632;2023-07-29T06:29:59;18.40;99.90
28530;DHT22;15737;49.760;6.632;2023-07-29T06:32:31;18.40;99.90
28530;DHT22;15737;49.760;6.632;2023-07-29T06:35:00;18.50;99.90
28530;DHT22;15737;49.760;6.632;2023-07-29T06:37:26;18.80;99.90
28530;DHT22;15737;49.760;6.632;2023-07-29T06:39:51;19.10;99.90
28530;DHT22;15737;49.760;6.632;2023-07-29T06:42:17;19.90;99.90
28530;DHT22;15737;49.760;6.632;2023-07-29T06:44:42;20.30;99.90
28530;DHT22;15737;49.760;6.632;2023-07-29T06:47:08;20.00;99.90
28530;DHT22;15737;49.760;6.632;2023-07-29T06:49:33;19.80;99.90
28530;DHT22;15737;49.760;6.632;2023-07-29T06:51:59;19.60;99.90
28530;DHT22;15737;49.760;6.632;2023-07-29T06:54:25;19.40;99.90
28530;DHT22;15737;49.760;6.632;2023-07-29T06:56:51;19.20;99.90
28530;DHT22;15737;49.760;6.632;2023-07-29T06:59:27;19.10;99.90
28530;DHT22;15737;49.760;6.632;2023-07-29T07:01:53;19.10;99.90
28530;DHT22;15737;49.760;6.632;2023-07-29T07:04:18;19.00;99.90
28530;DHT22;15737;49.760;6.632;2023-07-29T07:06:44;19.00;99.90
28530;DHT22;15737;49.760;6.632;2023-07-29T07:09:09;19.00;99.90
28530;DHT22;15737;49.760;6.632;2023-07-29T07:11:35;19.10;99.90
28530;DHT22;15737;49.760;6.632;2023-07-29T07:14:00;19.10;99.90
28530;DHT22;15737;49.760;6.632;2023-07-29T07:16:26;19.10;99.90
28530;DHT22;15737;49.760;6.632;2023-07-29T07:18:51;19.00;99.90
28530;DHT22;15737;49.760;6.632;2023-07-29T07:21:17;19.00;99.90
28530;DHT22;15737;49.760;6.632;2023-07-29T07:23:42;19.00;99.90
28530;DHT22;15737;49.760;6.632;2023-07-29T07:26:08;19.00;99.90
28530;DHT22;15737;49.760;6.632;2023-07-29T07:28:50;19.00;99.90
28530;DHT22;15737;49.760;6.632;2023-07-29T07:31:17;18.90;99.90
28530;DHT22;15737;49.760;6.632;2023-07-29T07:33:42;19.00;99.90
28530;DHT22;15737;49.760;6.632;2023-07-29T07:36:08;19.30;99.90
28530;DHT22;15737;49.760;6.632;2023-07-29T07:38:33;19.90;99.90
28530;DHT22;15737;49.760;6.632;2023-07-29T07:40:59;20.40;99.90
28530;DHT22;15737;49.760;6.632;2023-07-29T07:43:24;21.10;99.90
28530;DHT22;15737;49.760;6.632;2023-07-29T07:45:51;22.10;99.90
28530;DHT22;15737;49.760;6.632;2023-07-29T07:48:17;24.80;99.90
28530;DHT22;15737;49.760;6.632;2023-07-29T07:50:43;25.40;99.90
28530;DHT22;15737;49.760;6.632;2023-07-29T07:58:17;34.10;99.90
28530;DHT22;15737;49.760;6.632;2023-07-29T08:00:42;33.50;99.90
28530;DHT22;15737;49.760;6.632;2023-07-29T08:03:08;35.10;99.90
28530;DHT22;15737;49.760;6.632;2023-07-29T08:05:33;35.60;98.40
28530;DHT22;15737;49.760;6.632;2023-07-29T08:13:12;33.80;95.00
28530;DHT22;15737;49.760;6.632;2023-07-29T08:15:38;31.70;97.30
28530;DHT22;15737;49.760;6.632;2023-07-29T08:18:03;29.60;99.30
28530;DHT22;15737;49.760;6.632;2023-07-29T08:20:29;27.80;99.90
28530;DHT22;15737;49.760;6.632;2023-07-29T08:22:54;26.60;99.90
28530;DHT22;15737;49.760;6.632;2023-07-29T08:25:20;25.80;99.90
28530;DHT22;15737;49.760;6.632;2023-07-29T08:27:45;25.40;99.90
28530;DHT22;15737;49.760;6.632;2023-07-29T08:30:11;25.20;99.90
28530;DHT22;15737;49.760;6.632;2023-07-29T08:32:36;25.70;99.90
28530;DHT22;15737;49.760;6.632;2023-07-29T08:40:05;26.70;99.90
28530;DHT22;15737;49.760;6.632;2023-07-29T08:42:32;26.30;99.90
28530;DHT22;15737;49.760;6.632;2023-07-29T08:45:05;25.70;99.90
28530;DHT22;15737;49.760;6.632;2023-07-29T08:47:31;25.40;99.90
28530;DHT22;15737;49.760;6.632;2023-07-29T08:52:34;24.70;99.90
28530;DHT22;15737;49.760;6.632;2023-07-29T08:55:00;24.40;99.90
28530;DHT22;15737;49.760;6.632;2023-07-29T08:57:26;25.00;99.90
28530;DHT22;15737;49.760;6.632;2023-07-29T08:59:52;29.70;99.90
28530;DHT22;15737;49.760;6.632;2023-07-29T09:02:18;33.30;96.40
28530;DHT22;15737;49.760;6.632;2023-07-29T09:04:43;34.10;91.50
28530;DHT22;15737;49.760;6.632;2023-07-29T09:07:10;33.60;91.20
28530;DHT22;15737;49.760;6.632;2023-07-29T09:09:35;32.70;91.30
28530;DHT22;15737;49.760;6.632;2023-07-29T09:12:01;30.90;92.70
28530;DHT22;15737;49.760;6.632;2023-07-29T09:14:27;30.60;92.90
28530;DHT22;15737;49.760;6.632;2023-07-29T09:19:28;28.50;94.40
28530;DHT22;15737;49.760;6.632;2023-07-29T09:21:58;27.30;96.50
28530;DHT22;15737;49.760;6.632;2023-07-29T09:24:23;27.50;98.00
28530;DHT22;15737;49.760;6.632;2023-07-29T09:26:52;30.30;94.20
28530;DHT22;15737;49.760;6.632;2023-07-29T09:29:22;32.20;84.80
28530;DHT22;15737;49.760;6.632;2023-07-29T09:34:22;34.10;76.70
28530;DHT22;15737;49.760;6.632;2023-07-29T09:36:50;34.70;74.10
28530;DHT22;15737;49.760;6.632;2023-07-29T09:39:16;35.80;67.20
28530;DHT22;15737;49.760;6.632;2023-07-29T09:41:47;35.40;66.00
28530;DHT22;15737;49.760;6.632;2023-07-29T09:44:13;34.60;67.00
28530;DHT22;15737;49.760;6.632;2023-07-29T09:46:53;33.60;69.70
28530;DHT22;15737;49.760;6.632;2023-07-29T09:49:18;33.10;70.00
28530;DHT22;15737;49.760;6.632;2023-07-29T09:51:47;30.40;76.10
28530;DHT22;15737;49.760;6.632;2023-07-29T09:54:13;28.20;83.30
28530;DHT22;15737;49.760;6.632;2023-07-29T09:56:42;27.10;88.80
28530;DHT22;15737;49.760;6.632;2023-07-29T09:59:10;28.40;85.00
28530;DHT22;15737;49.760;6.632;2023-07-29T10:01:41;29.30;81.20
28530;DHT22;15737;49.760;6.632;2023-07-29T10:04:11;30.10;77.20
28530;DHT22;15737;49.760;6.632;2023-07-29T10:06:54;29.90;74.50
28530;DHT22;15737;49.760;6.632;2023-07-29T10:09:20;30.40;75.00
28530;DHT22;15737;49.760;6.632;2023-07-29T10:11:47;31.70;70.50
28530;DHT22;15737;49.760;6.632;2023-07-29T10:14:15;32.70;67.90
28530;DHT22;15737;49.760;6.632;2023-07-29T10:16:42;33.20;67.10
28530;DHT22;15737;49.760;6.632;2023-07-29T10:19:10;33.00;67.10
28530;DHT22;15737;49.760;6.632;2023-07-29T10:21:38;32.50;67.20
28530;DHT22;15737;49.760;6.632;2023-07-29T10:24:08;31.50;69.70
28530;DHT22;15737;49.760;6.632;2023-07-29T10:26:36;29.80;72.90
28530;DHT22;15737;49.760;6.632;2023-07-29T10:29:04;28.70;76.50
28530;DHT22;15737;49.760;6.632;2023-07-29T10:31:42;29.60;76.00
28530;DHT22;15737;49.760;6.632;2023-07-29T10:34:15;30.60;71.40
28530;DHT22;15737;49.760;6.632;2023-07-29T10:36:41;29.10;74.30
28530;DHT22;15737;49.760;6.632;2023-07-29T10:39:07;28.10;79.30
28530;DHT22;15737;49.760;6.632;2023-07-29T10:41:55;27.40;80.90
28530;DHT22;15737;49.760;6.632;2023-07-29T10:47:12;26.60;84.80
28530;DHT22;15737;49.760;6.632;2023-07-29T10:52:29;29.80;78.20
28530;DHT22;15737;49.760;6.632;2023-07-29T10:55:40;30.70;74.90
28530;DHT22;15737;49.760;6.632;2023-07-29T10:58:14;30.30;74.50
28530;DHT22;15737;49.760;6.632;2023-07-29T11:00:46;30.00;75.10
28530;DHT22;15737;49.760;6.632;2023-07-29T11:03:15;28.40;79.90
28530;DHT22;15737;49.760;6.632;2023-07-29T11:05:48;27.20;84.20
28530;DHT22;15737;49.760;6.632;2023-07-29T11:08:34;27.20;84.90
28530;DHT22;15737;49.760;6.632;2023-07-29T11:11:08;28.30;80.90
28530;DHT22;15737;49.760;6.632;2023-07-29T11:16:16;30.10;77.10
28530;DHT22;15737;49.760;6.632;2023-07-29T11:18:43;31.10;75.30
28530;DHT22;15737;49.760;6.632;2023-07-29T11:21:09;30.70;72.40
28530;DHT22;15737;49.760;6.632;2023-07-29T11:23:36;30.80;70.80
28530;DHT22;15737;49.760;6.632;2023-07-29T11:26:03;30.20;70.00
28530;DHT22;15737;49.760;6.632;2023-07-29T11:28:37;29.30;73.30
28530;DHT22;15737;49.760;6.632;2023-07-29T11:31:02;29.70;71.10
28530;DHT22;15737;49.760;6.632;2023-07-29T11:33:28;29.00;71.40
28530;DHT22;15737;49.760;6.632;2023-07-29T11:35:54;28.80;74.00
28530;DHT22;15737;49.760;6.632;2023-07-29T11:38:21;29.90;73.30
28530;DHT22;15737;49.760;6.632;2023-07-29T11:41:00;31.10;68.50
28530;DHT22;15737;49.760;6.632;2023-07-29T11:43:28;30.20;69.60
28530;DHT22;15737;49.760;6.632;2023-07-29T11:45:56;29.60;71.00
28530;DHT22;15737;49.760;6.632;2023-07-29T11:48:35;28.80;72.70
28530;DHT22;15737;49.760;6.632;2023-07-29T11:51:02;28.40;75.00
28530;DHT22;15737;49.760;6.632;2023-07-29T11:53:31;28.10;75.50
28530;DHT22;15737;49.760;6.632;2023-07-29T11:55:57;27.70;76.40
28530;DHT22;15737;49.760;6.632;2023-07-29T11:58:28;27.00;78.90
28530;DHT22;15737;49.760;6.632;2023-07-29T12:00:53;26.70;80.10
28530;DHT22;15737;49.760;6.632;2023-07-29T12:03:19;26.70;81.00
28530;DHT22;15737;49.760;6.632;2023-07-29T12:05:45;26.60;81.00
28530;DHT22;15737;49.760;6.632;2023-07-29T12:08:11;26.70;81.70
28530;DHT22;15737;49.760;6.632;2023-07-29T12:10:37;27.90;80.50
28530;DHT22;15737;49.760;6.632;2023-07-29T12:13:03;29.30;75.80
28530;DHT22;15737;49.760;6.632;2023-07-29T12:18:07;30.00;69.00
28530;DHT22;15737;49.760;6.632;2023-07-29T12:20:50;29.30;70.80
28530;DHT22;15737;49.760;6.632;2023-07-29T12:23:29;29.00;73.40
28530;DHT22;15737;49.760;6.632;2023-07-29T12:25:59;29.10;72.50
28530;DHT22;15737;49.760;6.632;2023-07-29T12:28:25;29.70;72.50
28530;DHT22;15737;49.760;6.632;2023-07-29T12:30:54;30.70;70.40
28530;DHT22;15737;49.760;6.632;2023-07-29T12:33:33;31.10;70.00
28530;DHT22;15737;49.760;6.632;2023-07-29T12:35:59;31.40;69.60
28530;DHT22;15737;49.760;6.632;2023-07-29T12:38:29;32.00;68.00
28530;DHT22;15737;49.760;6.632;2023-07-29T12:40:55;31.80;67.40
28530;DHT22;15737;49.760;6.632;2023-07-29T12:43:28;31.00;67.50
28530;DHT22;15737;49.760;6.632;2023-07-29T12:45:54;29.70;69.20
28530;DHT22;15737;49.760;6.632;2023-07-29T12:48:21;28.80;72.10
28530;DHT22;15737;49.760;6.632;2023-07-29T12:50:47;28.60;72.70
28530;DHT22;15737;49.760;6.632;2023-07-29T12:53:12;28.50;73.70
28530;DHT22;15737;49.760;6.632;2023-07-29T12:55:38;28.20;73.90
28530;DHT22;15737;49.760;6.632;2023-07-29T13:03:12;28.10;74.70
28530;DHT22;15737;49.760;6.632;2023-07-29T13:05:37;28.90;73.20
28530;DHT22;15737;49.760;6.632;2023-07-29T13:08:03;29.40;72.70
28530;DHT22;15737;49.760;6.632;2023-07-29T13:10:33;29.00;71.10
28530;DHT22;15737;49.760;6.632;2023-07-29T13:13:19;28.90;73.40
28530;DHT22;15737;49.760;6.632;2023-07-29T13:15:50;29.60;72.00
28530;DHT22;15737;49.760;6.632;2023-07-29T13:18:16;30.10;68.20
28530;DHT22;15737;49.760;6.632;2023-07-29T13:20:42;29.50;69.40
28530;DHT22;15737;49.760;6.632;2023-07-29T13:23:07;29.00;70.60
28530;DHT22;15737;49.760;6.632;2023-07-29T13:25:33;28.60;71.70
28530;DHT22;15737;49.760;6.632;2023-07-29T13:28:04;28.10;73.20
28530;DHT22;15737;49.760;6.632;2023-07-29T13:30:38;28.20;73.90
28530;DHT22;15737;49.760;6.632;2023-07-29T13:33:13;29.30;71.00
28530;DHT22;15737;49.760;6.632;2023-07-29T13:35:39;29.70;69.40
28530;DHT22;15737;49.760;6.632;2023-07-29T13:38:05;29.60;68.90
28530;DHT22;15737;49.760;6.632;2023-07-29T13:40:31;29.10;68.60
28530;DHT22;15737;49.760;6.632;2023-07-29T13:43:00;28.20;71.50
28530;DHT22;15737;49.760;6.632;2023-07-29T13:45:29;28.20;71.30
28530;DHT22;15737;49.760;6.632;2023-07-29T13:47:55;28.20;71.70
28530;DHT22;15737;49.760;6.632;2023-07-29T13:50:26;28.80;71.60
28530;DHT22;15737;49.760;6.632;2023-07-29T13:52:52;29.50;69.70
28530;DHT22;15737;49.760;6.632;2023-07-29T13:55:17;29.70;68.50
28530;DHT22;15737;49.760;6.632;2023-07-29T13:58:06;29.10;67.90
28530;DHT22;15737;49.760;6.632;2023-07-29T14:00:31;28.60;69.00
28530;DHT22;15737;49.760;6.632;2023-07-29T14:03:07;28.60;70.40
28530;DHT22;15737;49.760;6.632;2023-07-29T14:05:37;28.90;69.60
28530;DHT22;15737;49.760;6.632;2023-07-29T14:08:06;29.30;69.30
28530;DHT22;15737;49.760;6.632;2023-07-29T14:10:37;29.90;67.20
28530;DHT22;15737;49.760;6.632;2023-07-29T14:15:33;29.70;67.00
28530;DHT22;15737;49.760;6.632;2023-07-29T14:17:59;29.20;66.90
28530;DHT22;15737;49.760;6.632;2023-07-29T14:20:32;28.50;69.00
28530;DHT22;15737;49.760;6.632;2023-07-29T14:23:06;27.90;70.30
28530;DHT22;15737;49.760;6.632;2023-07-29T14:25:34;28.00;71.10
28530;DHT22;15737;49.760;6.632;2023-07-29T14:30:33;29.00;68.40
28530;DHT22;15737;49.760;6.632;2023-07-29T14:32:59;28.20;69.80
28530;DHT22;15737;49.760;6.632;2023-07-29T14:35:34;27.50;72.00
28530;DHT22;15737;49.760;6.632;2023-07-29T14:38:14;27.20;73.30
28530;DHT22;15737;49.760;6.632;2023-07-29T14:40:55;27.60;73.00
28530;DHT22;15737;49.760;6.632;2023-07-29T14:43:22;27.90;72.40
28530;DHT22;15737;49.760;6.632;2023-07-29T14:48:25;27.80;70.70
28530;DHT22;15737;49.760;6.632;2023-07-29T14:50:59;27.40;72.80
28530;DHT22;15737;49.760;6.632;2023-07-29T14:53:26;27.40;72.80
28530;DHT22;15737;49.760;6.632;2023-07-29T14:55:57;27.20;73.10
28530;DHT22;15737;49.760;6.632;2023-07-29T14:58:24;27.00;75.00
28530;DHT22;15737;49.760;6.632;2023-07-29T15:00:51;26.70;75.60
28530;DHT22;15737;49.760;6.632;2023-07-29T15:03:17;26.40;77.10
28530;DHT22;15737;49.760;6.632;2023-07-29T15:05:42;25.90;77.30
28530;DHT22;15737;49.760;6.632;2023-07-29T15:08:08;25.70;78.50
28530;DHT22;15737;49.760;6.632;2023-07-29T15:10:33;25.70;78.80
28530;DHT22;15737;49.760;6.632;2023-07-29T15:12:59;25.90;78.90
28530;DHT22;15737;49.760;6.632;2023-07-29T15:15:24;26.20;77.50
28530;DHT22;15737;49.760;6.632;2023-07-29T15:17:50;26.40;77.60
28530;DHT22;15737;49.760;6.632;2023-07-29T15:20:15;26.50;77.30
28530;DHT22;15737;49.760;6.632;2023-07-29T15:22:41;26.70;77.90
28530;DHT22;15737;49.760;6.632;2023-07-29T15:25:08;26.90;77.80
28530;DHT22;15737;49.760;6.632;2023-07-29T15:27:36;27.20;77.50
28530;DHT22;15737;49.760;6.632;2023-07-29T15:30:10;27.20;77.30
28530;DHT22;15737;49.760;6.632;2023-07-29T15:32:37;26.90;77.20
28530;DHT22;15737;49.760;6.632;2023-07-29T15:35:03;26.70;78.10
28530;DHT22;15737;49.760;6.632;2023-07-29T15:37:28;26.60;78.20
28530;DHT22;15737;49.760;6.632;2023-07-29T15:39:54;26.40;79.20
28530;DHT22;15737;49.760;6.632;2023-07-29T15:42:20;26.30;79.90
28530;DHT22;15737;49.760;6.632;2023-07-29T15:44:45;26.20;80.60
28530;DHT22;15737;49.760;6.632;2023-07-29T15:47:11;26.20;80.90
28530;DHT22;15737;49.760;6.632;2023-07-29T15:49:38;26.40;80.70
28530;DHT22;15737;49.760;6.632;2023-07-29T15:52:04;26.40;81.00
28530;DHT22;15737;49.760;6.632;2023-07-29T15:54:35;26.60;81.20
28530;DHT22;15737;49.760;6.632;2023-07-29T15:57:01;27.20;80.20
28530;DHT22;15737;49.760;6.632;2023-07-29T15:59:27;27.50;79.10
28530;DHT22;15737;49.760;6.632;2023-07-29T16:01:52;27.60;79.10
28530;DHT22;15737;49.760;6.632;2023-07-29T16:04:18;27.50;78.40
28530;DHT22;15737;49.760;6.632;2023-07-29T16:06:43;27.20;79.00
28530;DHT22;15737;49.760;6.632;2023-07-29T16:09:09;27.00;80.20
28530;DHT22;15737;49.760;6.632;2023-07-29T16:11:34;26.90;80.50
28530;DHT22;15737;49.760;6.632;2023-07-29T16:14:00;26.80;81.40
28530;DHT22;15737;49.760;6.632;2023-07-29T16:16:27;26.70;81.00
28530;DHT22;15737;49.760;6.632;2023-07-29T16:18:52;26.60;82.10
28530;DHT22;15737;49.760;6.632;2023-07-29T16:21:18;26.80;82.00
28530;DHT22;15737;49.760;6.632;2023-07-29T16:23:56;26.80;82.10
28530;DHT22;15737;49.760;6.632;2023-07-29T16:26:22;26.60;82.30
28530;DHT22;15737;49.760;6.632;2023-07-29T16:28:47;26.40;83.50